< < Back
Terminal Aerodrome Forecast


Current Version              Previous Versions:   1  2  3  4  5  6  7  8  9  

Terminal Aerodrome Forecast

238
FTUS44 KMOB 011400 AAA
TAFPNS
TAF AMD
KPNS 011456Z 0115/0212 06004KT P6SM FEW021 FEW250
     FM011500 16010G15KT P6SM VCTS SCT030CB SCT250
      TEMPO 0115/0119 BKN030CB
     FM011900 16011G16KT P6SM FEW030
     FM020100 19008KT P6SM SCT250=

Latest METAR

684
SAUS70 KWBC 020900 RRD
MTRPNS
METAR KPNS 020853Z AUTO 19004KT 10SM CLR 26/23 A3003 RMK AO2 SLP168
T02610233 55005


USA.gov is the U.S. government's official web portal to all federal, state and local government web resources and services.